Latest Weather Observations for Gunnedah Airport

IDN60801

Issued at 6:33 am EDT Friday 19 December 2014 (issued every 30 minutes, with the page automatically refreshed every 10 minutes)

About weather observations | Map of weather stations | Latest weather observations for NSW | Other Formats
Station Details ID: 055202 Name: GUNNEDAH AIRPORT AWS Lat: -30.95 Lon: 150.25 Height: 262.57 m
Data from the previous 72 hours. | See also: Recent months at Gunnedah Airport
Date/Time
EDT
Temp
°C
App
Temp
°C
Dew
Point
Rel
Hum
%
Delta-T
°C
Wind Press
QNH
hPa
Press
MSL
hPa
Rain
since 9 am
mm
Dir
 
Spd
km/h
Gust
km/h
Spd
kts
Gust
kts
19/06:30am 16.3 15.1 11.5 73 2.6 WSW 9 11 5 6 1011.5 1010.1 0.0
19/06:00am 17.1 15.9 11.6 70 3.0 WNW 9 13 5 7 1011.2 1009.8 0.0
19/05:30am 17.8 16.3 11.8 68 3.3 WNW 11 15 6 8 1010.9 1009.5 0.0
19/05:00am 19.0 16.3 11.8 63 4.0 WNW 17 22 9 12 1010.6 1009.2 0.0
19/04:30am 17.5 14.7 11.5 68 3.3 W 17 22 9 12 1010.1 1008.8 0.0
19/04:00am 16.5 13.4 7.4 55 4.6 W 13 17 7 9 1009.8 1008.5 0.0
19/03:30am 16.8 13.1 4.2 43 6.0 W 13 15 7 8 1009.7 1008.4 0.0
19/03:00am 16.9 12.8 2.1 37 6.8 WNW 13 17 7 9 1009.8 1008.5 0.0
19/02:30am 16.6 12.7 3.3 41 6.2 W 13 15 7 8 1009.8 1008.5 0.0
19/02:00am 17.2 13.8 3.8 41 6.3 WNW 11 11 6 6 1010.0 1008.7 0.0
19/01:30am 17.6 13.6 3.1 38 6.8 W 13 13 7 7 1009.9 1008.6 0.0
19/01:00am 17.0 13.4 3.0 39 6.5 WNW 11 11 6 6 1010.1 1008.8 0.0
19/12:30am 17.6 14.3 2.4 36 7.0 WNW 9 11 5 6 1010.3 1008.9 0.0
19/12:00am 18.7 16.3 2.1 33 7.7 WNW 4 9 2 5 1010.3 1008.9 0.0
 
Date/Time
EDT
Temp
°C
App
Temp
°C
Dew
Point
Rel
Hum
%
Delta-T
°C
Wind Press
QNH
hPa
Press
MSL
hPa
Rain
since 9 am
mm
Dir
 
Spd
km/h
Gust
km/h
Spd
kts
Gust
kts
18/11:30pm 17.4 14.8 3.0 38 6.7 NE 6 9 3 5 1010.5 1009.1 0.0
18/11:00pm 20.3 16.6 2.2 30 8.5 WNW 11 13 6 7 1010.3 1008.9 0.0
18/10:30pm 20.8 17.4 1.6 28 8.9 WNW 9 13 5 7 1010.1 1008.8 0.0
18/10:00pm 22.5 18.9 0.9 24 10.1 NW 9 13 5 7 1010.0 1008.7 0.0
18/09:30pm 23.3 19.7 0.4 22 10.6 NW 9 13 5 7 1009.6 1008.3 0.0
18/09:00pm 24.3 20.2 -0.1 20 11.3 WNW 11 17 6 9 1009.4 1008.1 0.0
18/08:30pm 25.7 21.5 -1.2 17 12.3 NW 11 15 6 8 1008.9 1007.6 0.0
18/08:00pm 26.7 21.7 -1.2 16 12.9 NNW 15 20 8 11 1008.5 1007.2 0.0
18/07:30pm 27.0 22.7 -1.8 15 13.2 NW 11 13 6 7 1008.2 1006.8 0.0
18/07:00pm 28.4 23.6 -2.6 13 14.2 WNW 13 20 7 11 1007.7 1006.3 0.0
18/06:30pm 28.8 23.1 -3.4 12 14.5 WNW 17 24 9 13 1007.4 1006.0 0.0
18/06:00pm 29.4 23.4 -1.9 13 14.6 WNW 20 32 11 17 1007.2 1005.8 0.0
18/05:30pm 30.0 22.7 -2.5 12 15.0 W 26 39 14 21 1006.9 1005.5 0.0
18/05:00pm 30.7 22.8 -1.9 12 15.4 W 30 50 16 27 1006.4 1005.0 0.0
18/04:30pm 31.2 22.0 -1.5 12 15.5 W 37 52 20 28 1005.9 1004.6 0.0
18/04:13pm 31.8 23.0 -1.1 12 15.8 W 35 54 19 29 1005.8 1004.5 0.0
18/04:00pm 32.3 23.0 0.4 13 15.8 W 39 56 21 30 1005.6 1004.3 0.0
18/03:30pm 32.9 22.1 -0.2 12 16.3 W 46 65 25 35 1005.3 1004.0 0.0
18/03:00pm 34.0 25.7 6.3 18 15.3 W 39 57 21 31 1005.0 1003.7 0.0
18/02:40pm 33.8 25.9 7.7 20 14.6 W 39 59 21 32 1004.8 1003.4 0.0
18/02:30pm 34.0 26.5 9.3 22 14.2 W 39 50 21 27 1004.8 1003.4 0.0
18/02:00pm 34.3 29.2 13.2 28 12.9 WNW 32 44 17 24 1005.0 1003.7 0.0
18/01:30pm 32.0 27.9 13.7 33 11.2 NW 28 41 15 22 1005.4 1004.1 0.0
18/01:00pm 33.6 29.4 13.6 29 12.3 NW 28 43 15 23 1005.8 1004.5 0.0
18/12:30pm 32.5 27.8 13.2 31 11.7 NNW 30 43 16 23 1005.8 1004.5 0.0
18/12:19pm 33.1 29.0 13.7 31 11.9 NW 28 46 15 25 1005.8 1004.5 0.0
18/12:00pm 33.0 28.1 13.6 31 11.9 NW 32 46 17 25 1006.4 1005.0 0.0
18/11:30am 32.8 28.5 14.4 33 11.4 NW 30 41 16 22 1006.4 1005.0 0.0
18/11:00am 32.3 29.8 14.0 33 11.3 NW 20 30 11 16 1006.7 1005.3 0.0
18/10:30am 31.1 28.5 13.8 34 10.5 NNW 20 33 11 18 1007.0 1005.6 0.0
18/10:00am 29.5 27.2 14.1 39 9.4 NNW 19 26 10 14 1007.1 1005.7 0.0
18/09:30am 29.6 28.5 14.2 39 9.4 NNW 13 20 7 11 1007.5 1006.1 0.0
18/09:00am 28.9 28.6 14.3 40 8.9 NNW 9 17 5 9 1007.4 1006.0 0.0
18/08:30am 26.8 27.1 13.5 44 7.9 NE 4 9 2 5 1007.5 1006.1 0.0
18/08:00am 24.7 25.3 14.2 52 6.3 SE 4 7 2 4 1007.6 1006.2 0.0
18/07:30am 22.9 23.1 14.2 58 5.2 E 6 9 3 5 1007.5 1006.1 0.0
18/07:00am 22.0 21.2 13.9 60 4.8 SSE 11 15 6 8 1007.5 1006.1 0.0
18/06:30am 21.5 20.4 13.2 59 4.8 SE 11 17 6 9 1007.2 1005.8 0.0
18/06:00am 21.7 19.3 12.8 57 5.1 SE 17 22 9 12 1006.3 1004.9 0.0
18/05:30am 21.6 19.4 13.2 59 4.9 SE 17 22 9 12 1005.6 1004.3 0.0
18/05:00am 20.3 19.2 13.0 63 4.2 SSE 11 15 6 8 1005.5 1004.2 0.0
18/04:30am 20.5 20.3 13.5 64 4.1 ESE 7 11 4 6 1005.4 1004.1 0.0
18/04:00am 20.1 19.4 13.3 65 3.9 ESE 9 11 5 6 1005.2 1003.9 0.0
18/03:30am 20.5 19.1 13.5 64 4.1 SE 13 17 7 9 1004.9 1003.5 0.0
18/03:00am 20.8 19.0 13.3 62 4.4 SE 15 24 8 13 1005.3 1004.0 0.0
18/02:30am 21.4 18.8 13.1 59 4.8 SE 19 26 10 14 1005.6 1004.3 0.0
18/02:00am 21.7 18.0 12.8 57 5.1 SSE 24 35 13 19 1005.6 1004.3 0.0
18/01:30am 21.5 18.7 12.6 57 5.1 SE 19 26 10 14 1006.0 1004.7 0.0
18/01:00am 23.3 20.5 13.2 53 5.9 SSE 20 26 11 14 1006.3 1004.9 0.0
18/12:30am 22.3 20.5 13.4 57 5.2 SSE 15 20 8 11 1006.5 1005.1 0.0
18/12:00am 23.8 21.4 12.8 50 6.4 SE 17 20 9 11 1006.3 1004.9 0.0
 
Date/Time
EDT
Temp
°C
App
Temp
°C
Dew
Point
Rel
Hum
%
Delta-T
°C
Wind Press
QNH
hPa
Press
MSL
hPa
Rain
since 9 am
mm
Dir
 
Spd
km/h
Gust
km/h
Spd
kts
Gust
kts
17/11:30pm 26.5 23.4 13.3 44 7.8 SE 22 30 12 16 1006.7 1005.3 0.0
17/11:00pm 28.2 26.6 12.9 38 9.1 E 13 19 7 10 1007.5 1006.1 0.0
17/10:30pm 28.8 25.6 11.8 35 9.9 SSE 20 26 11 14 1005.6 1004.3 0.0
17/10:00pm 29.0 25.1 12.0 35 10.0 SSE 24 33 13 18 1005.2 1003.9 0.0
17/09:30pm 28.3 24.6 6.4 25 11.7 SSE 15 19 8 10 1004.8 1003.4 0.0
17/09:00pm 30.0 27.1 4.6 20 13.3 SSW 9 13 5 7 1004.5 1003.1 0.0
17/08:30pm 30.9 27.2 4.6 19 13.8 SW 13 17 7 9 1004.0 1002.6 0.0
17/08:00pm 32.9 28.5 4.6 17 15.1 W 17 22 9 12 1003.7 1002.3 0.0
17/07:30pm 35.2 29.3 3.7 14 16.7 W 24 30 13 16 1003.2 1001.8 0.0
17/07:00pm 36.5 31.1 2.5 12 17.9 W 20 32 11 17 1002.5 1001.1 0.0
17/06:30pm 37.5 31.5 3.3 12 18.3 W 24 35 13 19 1002.0 1000.7 0.0
17/06:01pm 38.0 30.9 1.1 10 19.1 W 28 46 15 25 1001.7 1000.4 0.0
17/06:00pm 38.0 30.9 1.1 10 19.2 W 28 39 15 21 1001.7 1000.4 0.0
17/05:30pm 38.5 30.7 1.5 10 19.3 W 32 48 17 26 1001.8 1000.5 0.0
17/05:16pm 38.5 32.1 5.2 13 18.4 WNW 28 46 15 25 1001.7 1000.4 0.0
17/05:00pm 38.7 33.1 5.4 13 18.5 WNW 24 35 13 19 1001.8 1000.5 0.0
17/04:30pm 38.4 32.2 6.2 14 18.0 WNW 28 44 15 24 1002.0 1000.7 0.0
17/04:12pm 38.7 32.2 6.4 14 18.2 WNW 30 50 16 27 1002.4 1001.0 0.0
17/04:00pm 37.7 30.4 5.6 14 17.8 W 33 46 18 25 1002.6 1001.2 0.0
17/03:43pm 38.6 31.7 6.3 14 18.1 WNW 32 50 17 27 1002.8 1001.4 0.0
17/03:30pm 37.6 30.5 6.6 15 17.4 WNW 33 46 18 25 1003.1 1001.7 0.0
17/03:00pm 37.3 29.8 6.3 15 17.4 WNW 35 50 19 27 1003.2 1001.8 0.0
17/02:30pm 39.5 32.9 6.0 13 18.8 WNW 30 48 16 26 1003.4 1002.0 0.0
17/02:00pm 38.7 33.2 7.4 15 17.9 WNW 26 39 14 21 1003.5 1002.1 0.0
17/01:30pm 37.4 31.0 5.4 14 17.6 WNW 28 41 15 22 1003.7 1002.3 0.0
17/01:00pm 37.3 31.4 7.3 16 17.1 WNW 28 48 15 26 1004.2 1002.8 0.0
17/12:30pm 36.7 30.5 7.7 17 16.5 W 30 43 16 23 1004.6 1003.2 0.0
17/12:00pm 35.5 31.7 9.8 21 15.1 WNW 20 35 11 19 1004.8 1003.4 0.0
17/11:30am 35.7 31.6 11.4 23 14.5 NW 24 39 13 21 1005.0 1003.7 0.0
17/11:00am 34.5 30.3 9.7 22 14.4 NNW 22 33 12 18 1005.1 1003.8 0.0
17/10:30am 33.1 30.8 11.6 27 12.8 N 15 20 8 11 1005.2 1003.9 0.0
17/10:00am 30.9 28.2 11.8 31 11.3 N 17 24 9 13 1005.4 1004.1 0.0
17/09:30am 29.1 28.2 12.5 36 9.8 NNW 9 15 5 8 1005.7 1004.4 0.0
17/09:00am 27.6 27.2 12.4 39 9.0 ENE 6 9 3 5 1006.0 1004.7 1.4
17/08:30am 26.3 26.1 15.7 52 6.5 ESE 11 13 6 7 1006.1 1004.8 1.4
17/08:00am 24.4 24.2 15.6 58 5.4 ESE 11 15 6 8 1006.0 1004.7 1.4
17/07:30am 23.3 23.4 15.4 61 4.8 E 9 13 5 7 1005.7 1004.4 1.4
17/07:00am 20.4 20.3 16.0 76 2.7 SSE 11 15 6 8 1005.6 1004.3 1.4
17/06:30am 17.4 17.1 14.3 82 1.8 S 9 9 5 5 1004.4 1003.0 1.4
17/06:00am 16.6 16.4 13.5 82 1.8 SSW 7 9 4 5 1004.0 1002.6 1.4
17/05:30am 17.0 16.5 13.7 81 1.9 ESE 9 13 5 7 1003.7 1002.3 1.4
17/05:00am 15.9 15.8 13.2 84 1.5 SSE 6 9 3 5 1003.4 1002.0 1.4
17/04:30am 16.1 16.2 13.9 87 1.3 S 6 7 3 4 1003.0 1001.6 1.4
17/04:00am 16.4 17.3 14.1 86 1.3 SE 2 6 1 3 1002.8 1001.4 1.4
17/03:30am 16.4 16.2 13.7 84 1.5 SSE 7 7 4 4 1002.5 1001.1 1.4
17/03:00am 16.9 17.2 14.4 85 1.5 ESE 6 7 3 4 1002.7 1001.3 1.4
17/02:30am 17.1 17.8 14.6 85 1.5 SSE 4 6 2 3 1002.9 1001.5 1.4
17/02:00am 16.9 17.3 13.8 82 1.8 E 4 7 2 4 1003.2 1001.8 1.4
17/01:30am 18.5 19.1 15.2 81 2.0 ESE 6 7 3 4 1003.4 1002.0 1.4
17/01:00am 18.2 18.2 14.3 78 2.3 SE 7 9 4 5 1003.6 1002.2 1.4
17/12:30am 19.7 20.2 15.6 77 2.5 W 7 9 4 5 1003.5 1002.1 1.4
17/12:00am 20.2 21.0 15.8 76 2.7 SSW 6 7 3 4 1003.7 1002.3 1.4
 
Date/Time
EDT
Temp
°C
App
Temp
°C
Dew
Point
Rel
Hum
%
Delta-T
°C
Wind Press
QNH
hPa
Press
MSL
hPa
Rain
since 9 am
mm
Dir
 
Spd
km/h
Gust
km/h
Spd
kts
Gust
kts
16/11:30pm 21.2 21.8 15.7 71 3.3 SSW 7 9 4 5 1003.9 1002.5 1.4
16/11:00pm 23.5 25.3 15.5 60 4.9 CALM 0 2 0 1 1003.9 1002.5 1.4
16/10:30pm 22.7 23.3 15.3 63 4.5 W 6 11 3 6 1003.9 1002.5 1.4
16/10:00pm 23.7 24.1 14.7 57 5.4 WNW 6 6 3 3 1004.2 1002.8 1.4
16/09:30pm 24.9 22.8 14.7 53 6.2 N 19 26 10 14 1004.4 1003.0 1.4
16/09:00pm 24.9 24.2 15.5 56 5.8 N 13 17 7 9 1005.1 1003.8 1.4
16/08:30pm 23.9 24.5 16.9 65 4.4 NNE 9 13 5 7 1004.3 1002.9 1.4
16/08:00pm 23.0 24.2 16.8 68 3.9 NNE 6 11 3 6 1004.4 1003.0 1.4
16/07:30pm 24.5 23.0 16.2 60 5.1 N 19 28 10 15 1003.9 1002.5 1.4
16/07:14pm 23.9 23.7 18.5 72 3.4 N 17 22 9 12 1003.1 1001.7 1.2
16/07:00pm 25.5 26.2 17.9 63 4.8 W 11 17 6 9 1005.2 1003.9 1.0
16/06:30pm 25.9 27.1 17.3 59 5.4 ENE 7 11 4 6 1003.4 1002.0 1.0
16/06:00pm 25.1 27.1 18.8 68 4.1 ESE 6 9 3 5 1003.3 1001.9 1.0
16/05:30pm 25.4 26.6 18.3 65 4.5 NNW 9 13 5 7 1003.8 1002.4 1.0
16/05:00pm 25.0 27.6 18.4 66 4.2 SSW 2 11 1 6 1002.6 1001.2 1.0
16/04:40pm 23.0 15.1 14.8 60 4.9 W 50 82 27 44 1004.0 1002.6 0.8
16/04:33pm 27.9 20.9 10.1 33 10.1 W 37 82 20 44 1003.4 1002.0 0.0
16/04:32pm 30.0 23.6 9.5 28 11.6 W 33 82 18 44 1003.3 1001.9 0.0
16/04:30pm 31.6 26.0 8.6 24 13.0 W 28 43 15 23 1003.1 1001.7 0.0
16/04:00pm 34.8 28.4 5.3 16 16.1 NW 28 41 15 22 1001.5 1000.1 0.0
16/03:30pm 35.0 29.4 7.1 18 15.6 NNW 26 37 14 20 1002.0 1000.7 0.0
16/03:00pm 35.2 29.3 7.3 18 15.7 NW 28 39 15 21 1002.6 1001.2 0.0
16/02:30pm 35.5 29.0 6.7 17 16.0 NW 30 46 16 25 1002.9 1001.5 0.0
16/02:00pm 35.4 28.9 4.8 15 16.6 NNW 28 50 15 27 1003.2 1001.8 0.0
16/01:58pm 36.9 30.5 5.0 14 17.4 NNW 28 50 15 27 1003.1 1001.7 0.0
16/01:30pm 35.3 28.6 5.7 16 16.2 NNW 30 41 16 22 1003.9 1002.5 0.0
16/01:00pm 35.0 30.0 6.3 17 15.9 NW 22 35 12 19 1004.7 1003.3 0.0
16/12:30pm 33.8 28.6 5.4 17 15.4 NW 22 37 12 20 1005.3 1004.0 0.0
16/12:00pm 35.7 30.4 6.9 17 16.2 N 24 33 13 18 1005.3 1004.0 0.0
16/11:30am 32.6 28.6 8.1 22 13.8 NNW 19 28 10 15 1006.5 1005.1 0.0
16/11:00am 30.4 26.6 5.6 21 13.3 N 15 26 8 14 1007.0 1005.6 0.0
16/10:30am 29.3 26.4 6.7 24 12.2 NW 11 17 6 9 1007.2 1005.8 0.0
16/10:00am 28.5 26.7 7.1 26 11.6 NNW 6 15 3 8 1007.6 1006.2 0.0
16/09:30am 27.7 25.0 7.5 28 11.0 WNW 11 17 6 9 1008.2 1006.8 0.0
16/09:00am 26.9 24.5 8.8 32 10.0 NNW 11 17 6 9 1008.1 1006.7 0.0
16/08:30am 26.1 25.1 10.3 37 8.9 NE 6 9 3 5 1008.0 1006.6 0.0
16/08:00am 24.4 23.3 10.7 42 7.7 SSE 7 11 4 6 1008.5 1007.2 0.0
16/07:30am 22.5 20.7 10.9 48 6.5 SSE 11 13 6 7 1008.1 1006.7 0.0
16/07:00am 21.1 18.7 11.4 54 5.5 SSE 15 17 8 9 1007.5 1006.1 0.0

Other Formats:

Comma delimited format used in spreadsheet applications
http://www.bom.gov.au/fwo/IDN60801/IDN60801.95740.axf

JavaScript Object Notation format (JSON) in row-major order
http://www.bom.gov.au/fwo/IDN60801/IDN60801.95740.json